Time;durP1;ratioP1;P1;durP2;ratioP2;P2;SDS_P1;SDS_P2;PMS_P1;PMS_P2;Temp;Humidity;BMP_temperature;BMP_pressure;BME280_temperature;BME280_humidity;BME280_pressure;Samples;Min_cycle;Max_cycle;Signal;HPM_P1;HPM_P2
2022/05/30 00:00:51;;;;;;;6.70;1.83;;;10.20;70.40;;;;;;4931983;29;20055;-77
2022/05/30 00:03:19;;;;;;;5.25;1.60;;;10.20;70.50;;;;;;4914739;29;20414;-77
2022/05/30 00:05:49;;;;;;;6.10;1.75;;;10.20;70.50;;;;;;4916827;29;20051;-77
2022/05/30 00:08:19;;;;;;;7.00;2.10;;;10.10;70.50;;;;;;4914986;29;20165;-76
2022/05/30 00:10:47;;;;;;;6.97;2.05;;;10.10;70.50;;;;;;4916784;29;20508;-77
2022/05/30 00:13:16;;;;;;;4.93;1.60;;;10.20;70.80;;;;;;4927045;29;20544;-77
2022/05/30 00:15:43;;;;;;;5.75;1.90;;;10.10;70.90;;;;;;4910991;29;20051;-76
2022/05/30 00:18:12;;;;;;;8.25;1.88;;;10.10;71.00;;;;;;4917365;29;20509;-76
2022/05/30 00:20:44;;;;;;;4.07;1.73;;;10.10;71.00;;;;;;4922513;29;20052;-77
2022/05/30 00:23:12;;;;;;;6.87;2.10;;;10.00;71.10;;;;;;4942601;29;20070;-77
2022/05/30 00:25:42;;;;;;;3.65;1.40;;;10.00;71.10;;;;;;4935159;29;20297;-77
2022/05/30 00:28:10;;;;;;;6.43;1.60;;;9.90;71.20;;;;;;4932988;29;20063;-77
2022/05/30 00:30:38;;;;;;;7.45;1.73;;;9.90;71.20;;;;;;4936299;29;20048;-77
2022/05/30 00:33:06;;;;;;;5.63;1.95;;;9.90;71.30;;;;;;4937144;29;20048;-76
2022/05/30 00:35:34;;;;;;;5.95;1.52;;;9.80;71.40;;;;;;4931083;29;20066;-76
2022/05/30 00:38:02;;;;;;;5.78;1.52;;;9.80;71.50;;;;;;4937014;29;20044;-77
2022/05/30 00:40:31;;;;;;;9.15;2.00;;;9.80;71.60;;;;;;4935968;29;20437;-77
2022/05/30 00:43:17;;;;;;;4.63;1.40;;;9.80;71.70;;;;;;4927666;29;20058;-76
2022/05/30 00:45:46;;;;;;;6.10;1.95;;;9.80;72.00;;;;;;4919863;29;20081;-76
2022/05/30 00:48:14;;;;;;;5.03;1.83;;;9.80;71.80;;;;;;4934958;29;20104;-76
2022/05/30 00:50:43;;;;;;;6.07;1.83;;;9.80;71.90;;;;;;4927665;29;20048;-76
2022/05/30 00:53:12;;;;;;;6.68;2.00;;;9.80;72.10;;;;;;4941863;29;20060;-77
2022/05/30 00:55:41;;;;;;;6.95;2.03;;;9.80;72.20;;;;;;4931579;29;20059;-77
2022/05/30 00:58:10;;;;;;;5.10;1.70;;;9.80;72.40;;;;;;4900814;29;20071;-77
2022/05/30 01:00:38;;;;;;;5.40;1.92;;;9.70;72.50;;;;;;4942464;29;20052;-77
2022/05/30 01:08:41;;;;;;;6.38;1.98;;;9.70;72.80;;;;;;4942732;29;20054;-77
2022/05/30 01:11:08;;;;;;;6.28;1.95;;;9.60;72.90;;;;;;4935344;29;20063;-77
2022/05/30 01:13:38;;;;;;;4.32;1.80;;;9.60;73.00;;;;;;4934334;29;20059;-77
2022/05/30 01:16:06;;;;;;;5.50;1.77;;;9.60;73.30;;;;;;4925120;29;20041;-77
2022/05/30 01:18:43;;;;;;;9.95;2.58;;;9.60;73.30;;;;;;4913664;29;20406;-77
2022/05/30 01:21:59;;;;;;;5.45;2.08;;;9.60;73.40;;;;;;4926351;29;20530;-77
2022/05/30 01:24:53;;;;;;;6.18;2.05;;;9.60;73.50;;;;;;4825141;29;20065;-77
2022/05/30 01:27:55;;;;;;;4.70;1.77;;;9.60;73.50;;;;;;4830421;29;20054;-76
2022/05/30 01:30:23;;;;;;;11.30;2.10;;;9.50;73.40;;;;;;4823537;29;20050;-76
2022/05/30 01:32:59;;;;;;;3.90;1.85;;;9.50;73.50;;;;;;4830339;29;20062;-77
2022/05/30 01:35:29;;;;;;;3.42;1.73;;;9.50;73.60;;;;;;4831949;29;20536;-76
2022/05/30 01:38:00;;;;;;;6.53;1.90;;;9.50;73.70;;;;;;4811667;29;20057;-76
2022/05/30 01:40:29;;;;;;;6.43;1.95;;;9.50;73.80;;;;;;4839618;29;20078;-76
2022/05/30 01:42:57;;;;;;;6.57;2.00;;;9.50;73.90;;;;;;4839341;29;20065;-76
2022/05/30 01:45:26;;;;;;;5.93;2.08;;;9.50;74.20;;;;;;4824910;29;20053;-76
2022/05/30 01:47:55;;;;;;;6.97;1.88;;;9.40;74.20;;;;;;4824220;29;20087;-76
2022/05/30 01:50:26;;;;;;;5.88;2.10;;;9.40;74.30;;;;;;4809063;29;20580;-76
2022/05/30 01:52:54;;;;;;;7.38;2.72;;;9.40;74.40;;;;;;4824971;29;20393;-76
2022/05/30 01:55:41;;;;;;;7.97;2.03;;;9.40;74.50;;;;;;4839549;29;20057;-77
2022/05/30 01:58:12;;;;;;;3.20;2.20;;;9.30;74.70;;;;;;4839909;29;20065;-75
2022/05/30 02:01:05;;;;;;;3.80;2.20;;;9.30;74.80;;;;;;4876888;29;20070;-76
2022/05/30 02:03:34;;;;;;;6.47;2.53;;;9.30;74.90;;;;;;4914661;29;20458;-76
2022/05/30 02:06:02;;;;;;;3.20;2.30;;;9.30;75.00;;;;;;4915157;29;20040;-76
2022/05/30 02:08:30;;;;;;;4.50;2.08;;;9.30;75.10;;;;;;4920771;29;20051;-76
2022/05/30 02:10:58;;;;;;;8.02;2.78;;;9.30;75.30;;;;;;4944433;29;20063;-77
2022/05/30 02:13:26;;;;;;;10.27;2.10;;;9.30;75.50;;;;;;4929636;29;20055;-76
2022/05/30 02:18:59;;;;;;;6.43;2.60;;;9.30;75.70;;;;;;4933762;29;20051;-76
2022/05/30 02:21:34;;;;;;;5.78;2.40;;;9.30;75.70;;;;;;4931912;29;20055;-76
2022/05/30 02:24:04;;;;;;;5.68;2.45;;;9.30;75.80;;;;;;4942187;29;20594;-76
2022/05/30 02:26:34;;;;;;;4.43;2.42;;;9.30;75.90;;;;;;4932597;29;20039;-76
2022/05/30 02:29:03;;;;;;;6.47;2.55;;;9.20;76.00;;;;;;4934884;29;20521;-76
2022/05/30 02:31:31;;;;;;;5.90;2.85;;;9.30;76.10;;;;;;4914055;29;20044;-76
2022/05/30 02:36:45;;;;;;;5.40;2.90;;;9.20;76.40;;;;;;4926466;29;20536;-76
2022/05/30 02:39:17;;;;;;;10.10;3.50;;;9.20;76.40;;;;;;4926443;29;20040;-76
2022/05/30 02:42:14;;;;;;;6.95;3.80;;;9.20;76.40;;;;;;4926395;29;20051;-76
2022/05/30 02:44:41;;;;;;;9.75;3.67;;;9.20;76.40;;;;;;4910976;29;20047;-76
2022/05/30 02:47:09;;;;;;;6.80;4.15;;;9.20;76.50;;;;;;4941258;29;20055;-76
2022/05/30 02:49:41;;;;;;;10.13;4.18;;;9.20;76.60;;;;;;4923081;29;20075;-76
2022/05/30 02:52:09;;;;;;;6.80;3.53;;;9.20;76.70;;;;;;4949434;29;20044;-76
2022/05/30 02:54:39;;;;;;;9.20;3.58;;;9.20;77.20;;;;;;4949187;28;20052;-76
2022/05/30 02:57:26;;;;;;;9.27;4.15;;;9.20;77.20;;;;;;4907660;29;20054;-76
2022/05/30 02:59:53;;;;;;;13.45;4.30;;;9.20;77.30;;;;;;4920112;29;20060;-76
2022/05/30 03:02:22;;;;;;;7.13;4.13;;;9.20;77.60;;;;;;4925407;29;20056;-76
2022/05/30 03:04:50;;;;;;;11.43;4.63;;;9.20;77.70;;;;;;4945882;29;20049;-76
2022/05/30 03:07:19;;;;;;;10.73;3.95;;;9.10;77.70;;;;;;4944304;29;20059;-77
2022/05/30 03:09:47;;;;;;;6.93;4.00;;;9.20;77.70;;;;;;4949617;29;20053;-77
2022/05/30 03:12:40;;;;;;;6.10;3.78;;;9.10;77.90;;;;;;4925678;29;20047;-77
2022/05/30 03:15:08;;;;;;;8.80;3.47;;;9.10;78.00;;;;;;4936938;29;20048;-77
2022/05/30 03:17:36;;;;;;;7.70;4.18;;;9.10;78.10;;;;;;4924586;29;20063;-76
2022/05/30 03:20:06;;;;;;;9.77;4.07;;;9.10;78.20;;;;;;4941022;29;20063;-77
2022/05/30 03:22:34;;;;;;;8.45;3.70;;;9.10;78.40;;;;;;4928474;29;20043;-76
2022/05/30 03:25:27;;;;;;;9.27;3.90;;;9.10;78.60;;;;;;4912312;29;20102;-77
2022/05/30 03:27:56;;;;;;;11.18;4.00;;;9.10;78.60;;;;;;4899783;29;20078;-77
2022/05/30 03:30:24;;;;;;;6.28;3.78;;;9.10;78.60;;;;;;4901665;29;20047;-77
2022/05/30 03:32:51;;;;;;;11.98;4.53;;;9.10;78.60;;;;;;4923648;29;20055;-76
2022/05/30 03:35:20;;;;;;;10.10;3.60;;;9.10;78.80;;;;;;4912366;29;20047;-76
2022/05/30 03:37:55;;;;;;;6.45;3.13;;;9.20;79.10;;;;;;4932428;29;20047;-76
2022/05/30 03:40:58;;;;;;;8.88;3.80;;;9.20;79.30;;;;;;4875666;29;20053;-77
2022/05/30 03:43:48;;;;;;;5.85;3.53;;;9.20;79.60;;;;;;4877560;29;20061;-77
2022/05/30 03:46:16;;;;;;;12.10;4.47;;;9.20;79.70;;;;;;4876943;29;20561;-76
2022/05/30 03:48:45;;;;;;;6.00;3.55;;;9.10;79.70;;;;;;4880199;29;20061;-76
2022/05/30 03:51:13;;;;;;;10.50;4.43;;;9.10;80.00;;;;;;4874947;29;20056;-77
2022/05/30 03:53:43;;;;;;;11.00;3.97;;;9.10;80.10;;;;;;4874684;29;20067;-77
2022/05/30 03:56:11;;;;;;;9.65;4.25;;;9.10;80.10;;;;;;4875809;29;20053;-76
2022/05/30 03:58:39;;;;;;;8.20;3.85;;;9.10;80.20;;;;;;4861149;29;20376;-76
2022/05/30 04:01:08;;;;;;;8.00;3.45;;;9.00;80.40;;;;;;4863888;29;20396;-76
2022/05/30 04:03:37;;;;;;;5.47;3.38;;;9.00;80.50;;;;;;4861528;29;20057;-76
2022/05/30 04:06:05;;;;;;;8.07;3.33;;;9.00;80.70;;;;;;4881973;29;20048;-76
2022/05/30 04:08:33;;;;;;;4.93;2.88;;;9.00;80.80;;;;;;4888951;29;20068;-76
2022/05/30 04:11:19;;;;;;;6.35;3.17;;;9.00;80.90;;;;;;4892752;29;20053;-75
2022/05/30 04:14:10;;;;;;;7.10;3.17;;;9.00;81.00;;;;;;4884927;29;20064;-76
2022/05/30 04:16:44;;;;;;;7.05;2.90;;;9.00;81.20;;;;;;4916623;29;20056;-75
2022/05/30 04:19:13;;;;;;;12.20;3.92;;;9.00;81.10;;;;;;4903194;29;20060;-76
2022/05/30 04:21:40;;;;;;;6.53;3.10;;;9.00;81.00;;;;;;4913653;29;20056;-76
2022/05/30 04:24:09;;;;;;;9.02;3.70;;;9.00;81.00;;;;;;4900825;29;20059;-77
2022/05/30 04:26:44;;;;;;;6.13;2.95;;;9.00;81.00;;;;;;4890967;29;20096;-76
2022/05/30 04:29:13;;;;;;;7.82;3.00;;;9.00;81.00;;;;;;4896098;29;20065;-76
2022/05/30 04:32:12;;;;;;;5.20;2.60;;;9.00;81.00;;;;;;4899784;29;20071;-75
2022/05/30 04:34:39;;;;;;;3.80;2.40;;;9.00;81.10;;;;;;4897419;29;20052;-75
2022/05/30 04:37:07;;;;;;;4.43;2.25;;;9.00;81.10;;;;;;4907253;29;20060;-76
2022/05/30 04:39:36;;;;;;;7.13;2.80;;;9.00;80.90;;;;;;4915094;29;20059;-76
2022/05/30 04:42:42;;;;;;;7.55;2.25;;;9.00;80.90;;;;;;4860208;29;20423;-76
2022/05/30 04:46:01;;;;;;;3.92;2.10;;;9.00;80.80;;;;;;4859710;29;20061;-76
2022/05/30 04:48:36;;;;;;;4.60;2.22;;;9.10;80.60;;;;;;4848724;29;20069;-75
2022/05/30 04:51:04;;;;;;;3.05;2.03;;;9.10;80.70;;;;;;4833919;29;20058;-76
2022/05/30 04:53:32;;;;;;;7.80;2.15;;;9.00;80.60;;;;;;4841519;29;20117;-76
2022/05/30 04:56:25;;;;;;;7.40;2.50;;;9.00;80.70;;;;;;4827806;29;20056;-76
2022/05/30 04:59:04;;;;;;;4.47;1.92;;;9.00;80.70;;;;;;4835997;29;20060;-76
2022/05/30 05:01:35;;;;;;;3.75;2.03;;;8.90;80.70;;;;;;4843100;29;20064;-76
2022/05/30 05:04:05;;;;;;;4.78;2.05;;;8.90;80.80;;;;;;4812440;29;20057;-76
2022/05/30 05:06:33;;;;;;;5.90;2.20;;;8.90;80.90;;;;;;4828173;29;20053;-77
2022/05/30 05:09:01;;;;;;;4.93;2.20;;;8.80;80.90;;;;;;4851550;29;20499;-76
2022/05/30 05:11:49;;;;;;;4.80;2.00;;;8.90;80.90;;;;;;4848627;29;20077;-76
2022/05/30 05:14:48;;;;;;;2.92;1.73;;;8.80;80.80;;;;;;4835037;29;20060;-76
2022/05/30 05:17:36;;;;;;;5.82;2.13;;;8.90;80.70;;;;;;4860765;29;20049;-76
2022/05/30 05:20:04;;;;;;;4.60;1.83;;;8.90;80.80;;;;;;4865234;29;20049;-76
2022/05/30 05:22:31;;;;;;;4.75;1.65;;;8.90;80.70;;;;;;4844171;29;22037;-76
2022/05/30 05:25:00;;;;;;;5.60;2.03;;;9.00;80.70;;;;;;4859380;29;20102;-76
2022/05/30 05:27:34;;;;;;;4.20;1.48;;;9.00;80.50;;;;;;4871263;29;20068;-76
2022/05/30 05:30:02;;;;;;;2.95;1.65;;;9.10;80.50;;;;;;4861750;29;20053;-77
2022/05/30 05:32:30;;;;;;;7.28;1.92;;;9.10;80.30;;;;;;4866283;29;20502;-77
2022/05/30 05:34:58;;;;;;;6.28;1.73;;;9.20;80.20;;;;;;4857902;29;20099;-75
2022/05/30 05:37:25;;;;;;;5.30;1.67;;;9.10;80.20;;;;;;4842616;29;20057;-75
2022/05/30 05:40:13;;;;;;;2.78;1.00;;;9.10;80.10;;;;;;4860511;29;20046;-75
2022/05/30 05:42:41;;;;;;;5.13;1.52;;;9.10;79.90;;;;;;4861877;29;20069;-75
2022/05/30 05:45:10;;;;;;;3.30;1.70;;;9.00;79.70;;;;;;4848009;29;20506;-75
2022/05/30 05:47:38;;;;;;;5.78;1.30;;;9.00;79.70;;;;;;4860343;29;20125;-76
2022/05/30 05:50:06;;;;;;;5.03;1.35;;;9.00;79.70;;;;;;4890663;29;20617;-75
2022/05/30 05:52:34;;;;;;;2.90;1.02;;;9.00;79.60;;;;;;4924960;29;20051;-75
2022/05/30 05:55:11;;;;;;;5.95;1.95;;;9.00;79.40;;;;;;4908252;29;20418;-76
2022/05/30 05:57:39;;;;;;;2.97;1.23;;;9.00;79.30;;;;;;4898993;29;20063;-75
2022/05/30 06:00:07;;;;;;;4.97;1.60;;;9.10;79.30;;;;;;4915877;29;20048;-76
2022/05/30 06:02:45;;;;;;;2.67;1.27;;;9.20;79.10;;;;;;4914352;29;20040;-75
2022/05/30 06:05:16;;;;;;;5.85;1.27;;;9.30;78.80;;;;;;4921579;29;20406;-76
2022/05/30 06:08:19;;;;;;;3.75;1.02;;;9.60;78.50;;;;;;4910865;29;20044;-76
2022/05/30 06:11:12;;;;;;;5.68;1.02;;;9.80;77.70;;;;;;4886418;29;20056;-76
2022/05/30 06:13:46;;;;;;;5.00;0.90;;;10.10;75.80;;;;;;4891741;29;20051;-76
2022/05/30 06:16:16;;;;;;;7.00;1.02;;;10.20;75.40;;;;;;4914458;29;20052;-76
2022/05/30 06:18:53;;;;;;;2.88;0.90;;;10.30;75.20;;;;;;4921445;29;20059;-76
2022/05/30 06:21:23;;;;;;;13.88;1.65;;;10.40;74.00;;;;;;4919311;29;20048;-76
2022/05/30 06:23:54;;;;;;;7.05;1.10;;;10.40;73.60;;;;;;4895920;29;20075;-76
2022/05/30 06:26:45;;;;;;;4.57;1.20;;;10.40;73.70;;;;;;4913478;29;20056;-76
2022/05/30 06:29:33;;;;;;;12.30;1.27;;;10.50;73.80;;;;;;4913692;29;20492;-76
2022/05/30 06:32:04;;;;;;;2.35;1.00;;;10.60;73.80;;;;;;4908093;29;20048;-76
2022/05/30 06:34:47;;;;;;;6.55;1.13;;;10.70;73.70;;;;;;4910516;29;20047;-76
2022/05/30 06:37:15;;;;;;;3.50;0.73;;;10.80;73.50;;;;;;4922667;29;20520;-76
2022/05/30 06:39:43;;;;;;;3.53;1.20;;;10.80;73.20;;;;;;4910176;29;20047;-76
2022/05/30 06:42:26;;;;;;;5.22;1.02;;;10.80;72.90;;;;;;4908680;29;20064;-76
2022/05/30 06:45:12;;;;;;;3.70;1.20;;;10.80;72.80;;;;;;4914625;29;20040;-76
2022/05/30 06:48:03;;;;;;;3.15;0.90;;;10.80;73.10;;;;;;4859882;29;20049;-76
2022/05/30 06:50:49;;;;;;;6.57;1.10;;;10.90;73.20;;;;;;4857794;29;20570;-76
2022/05/30 06:53:16;;;;;;;7.70;0.95;;;10.90;72.90;;;;;;4854831;29;20404;-76
2022/05/30 06:55:50;;;;;;;9.38;1.00;;;11.00;73.00;;;;;;4840004;29;20049;-75
2022/05/30 06:58:19;;;;;;;4.28;1.40;;;11.10;73.00;;;;;;4837524;29;20057;-75
2022/05/30 07:00:48;;;;;;;9.02;1.40;;;11.10;72.90;;;;;;4842537;29;20049;-75
2022/05/30 07:03:37;;;;;;;8.60;1.40;;;11.20;73.00;;;;;;4856546;29;20080;-75
2022/05/30 07:06:26;;;;;;;5.20;1.13;;;11.20;73.00;;;;;;4856283;29;20057;-75
2022/05/30 07:09:19;;;;;;;3.60;0.77;;;11.30;72.60;;;;;;4841487;29;20057;-76
2022/05/30 07:11:54;;;;;;;3.90;0.80;;;11.40;71.40;;;;;;4854534;29;20779;-76
2022/05/30 07:14:24;;;;;;;1.08;0.68;;;11.40;69.90;;;;;;4852573;29;20046;-75
2022/05/30 07:16:52;;;;;;;5.07;0.80;;;11.30;69.70;;;;;;4852069;29;20057;-76
2022/05/30 07:19:20;;;;;;;1.90;0.70;;;11.30;70.00;;;;;;4856083;29;20791;-75
2022/05/30 07:21:50;;;;;;;3.92;0.70;;;11.40;68.40;;;;;;4857557;29;20061;-75
2022/05/30 07:24:38;;;;;;;10.27;1.20;;;11.50;68.80;;;;;;4866137;29;20052;-75
2022/05/30 07:27:24;;;;;;;4.28;0.88;;;11.60;68.00;;;;;;4915056;29;20044;-76
2022/05/30 07:30:10;;;;;;;5.63;1.20;;;11.60;67.70;;;;;;4914676;29;20059;-76
2022/05/30 07:33:13;;;;;;;13.27;1.60;;;11.60;67.00;;;;;;4892579;29;20546;-75
2022/05/30 07:36:00;;;;;;;7.07;1.00;;;11.60;67.50;;;;;;4882958;29;20142;-75
2022/05/30 07:39:00;;;;;;;12.90;1.38;;;11.70;67.30;;;;;;4897580;29;20068;-76
2022/05/30 07:41:42;;;;;;;4.38;0.88;;;11.70;67.70;;;;;;4881947;29;20056;-76
2022/05/30 07:44:18;;;;;;;9.13;1.10;;;11.60;67.80;;;;;;4881582;29;20048;-75
2022/05/30 07:47:06;;;;;;;1.92;0.90;;;11.60;67.40;;;;;;4897073;29;20546;-76
2022/05/30 07:49:54;;;;;;;6.90;1.30;;;11.60;67.20;;;;;;4881745;29;20083;-77
2022/05/30 07:52:32;;;;;;;3.00;0.90;;;11.50;67.30;;;;;;4881931;29;20045;-76
2022/05/30 07:55:13;;;;;;;2.65;1.17;;;11.50;67.70;;;;;;4872091;29;20563;-76
2022/05/30 07:57:54;;;;;;;7.13;1.20;;;11.50;67.70;;;;;;4896992;29;20053;-76
2022/05/30 08:00:31;;;;;;;2.05;1.08;;;11.40;68.30;;;;;;4880354;29;20056;-77
2022/05/30 08:03:05;;;;;;;1.83;1.15;;;11.40;68.70;;;;;;4880549;29;20056;-76
2022/05/30 08:05:33;;;;;;;3.78;1.70;;;11.50;69.00;;;;;;4879099;29;20503;-76
2022/05/30 08:08:19;;;;;;;4.28;1.35;;;11.60;69.20;;;;;;4911062;29;20404;-77
2022/05/30 08:10:50;;;;;;;14.10;1.75;;;11.80;69.40;;;;;;4916673;29;20055;-76
2022/05/30 08:13:19;;;;;;;7.38;1.30;;;11.80;69.20;;;;;;4916973;29;20048;-77
2022/05/30 08:15:51;;;;;;;4.60;1.30;;;12.10;68.50;;;;;;4916014;29;20060;-76
2022/05/30 08:18:32;;;;;;;7.82;1.15;;;12.20;67.20;;;;;;4916774;29;20044;-76
2022/05/30 08:21:02;;;;;;;12.30;1.58;;;12.20;67.10;;;;;;4916120;29;20056;-76
2022/05/30 08:23:33;;;;;;;4.60;0.93;;;12.20;67.20;;;;;;4940328;29;20043;-76
2022/05/30 08:26:03;;;;;;;23.98;1.40;;;12.30;66.10;;;;;;4900451;29;20059;-75
2022/05/30 08:28:45;;;;;;;11.82;1.25;;;12.20;65.90;;;;;;4915347;29;20044;-75
2022/05/30 08:31:15;;;;;;;17.85;1.50;;;12.20;65.90;;;;;;4916377;29;20055;-76
2022/05/30 08:33:45;;;;;;;12.75;1.20;;;12.30;65.50;;;;;;4917995;29;20155;-77
2022/05/30 08:36:36;;;;;;;4.85;1.27;;;12.30;65.70;;;;;;4929068;29;20044;-75
2022/05/30 08:41:50;;;;;;;3.88;1.10;;;12.50;63.90;;;;;;4918292;29;20414;-76
2022/05/30 08:44:37;;;;;;;3.60;0.75;;;12.60;64.00;;;;;;4911011;29;20052;-77
2022/05/30 08:47:56;;;;;;;3.92;0.95;;;12.70;64.00;;;;;;4904561;29;20053;-76
2022/05/30 08:50:57;;;;;;;5.75;1.65;;;12.90;63.70;;;;;;4914310;29;20056;-77
2022/05/30 08:53:35;;;;;;;20.75;1.73;;;13.10;62.70;;;;;;4899407;29;20056;-76
2022/05/30 08:56:23;;;;;;;7.18;1.30;;;13.20;62.50;;;;;;4938405;29;20047;-76
2022/05/30 08:59:20;;;;;;;5.22;0.93;;;13.30;62.00;;;;;;4913709;29;20060;-77
2022/05/30 09:01:54;;;;;;;15.40;1.33;;;13.50;61.50;;;;;;4941116;29;20040;-77
2022/05/30 09:04:51;;;;;;;8.32;1.25;;;13.40;60.90;;;;;;4939984;29;20055;-77
2022/05/30 09:07:25;;;;;;;5.93;1.00;;;13.40;60.70;;;;;;4915772;29;20066;-76
2022/05/30 09:10:02;;;;;;;4.43;0.90;;;13.40;61.10;;;;;;4937075;29;20055;-75
2022/05/30 09:12:52;;;;;;;2.45;0.50;;;13.50;60.70;;;;;;4913606;29;20462;-77
2022/05/30 09:15:27;;;;;;;4.78;0.90;;;13.70;60.60;;;;;;4915260;29;20508;-76
2022/05/30 09:18:25;;;;;;;4.60;1.00;;;13.80;59.90;;;;;;4908422;29;20049;-78
2022/05/30 09:20:54;;;;;;;3.78;0.90;;;13.90;60.00;;;;;;4922844;29;20051;-78
2022/05/30 09:23:27;;;;;;;5.45;1.10;;;14.10;58.90;;;;;;4918468;29;20405;-78
2022/05/30 09:26:03;;;;;;;4.57;0.88;;;14.20;57.70;;;;;;4921989;29;20059;-77
2022/05/30 09:29:01;;;;;;;5.30;0.80;;;14.20;57.90;;;;;;4917332;29;20051;-77
2022/05/30 09:32:28;;;;;;;7.78;0.90;;;14.30;57.30;;;;;;4936074;29;20048;-78
2022/05/30 09:35:25;;;;;;;9.65;1.38;;;14.30;57.20;;;;;;4933751;29;20405;-77
2022/05/30 09:38:05;;;;;;;5.05;0.68;;;14.40;56.80;;;;;;4920269;29;20046;-77
2022/05/30 09:40:54;;;;;;;3.65;1.00;;;14.50;57.00;;;;;;4936579;29;20402;-76
2022/05/30 09:44:01;;;;;;;4.13;1.00;;;14.50;56.50;;;;;;4920771;29;20544;-76
2022/05/30 09:46:43;;;;;;;3.13;0.80;;;14.50;55.80;;;;;;4902469;29;20131;-76
2022/05/30 09:49:17;;;;;;;3.35;0.88;;;14.40;56.00;;;;;;4936072;29;20055;-76
2022/05/30 09:51:49;;;;;;;5.97;0.80;;;14.30;56.40;;;;;;4917771;29;20048;-76
2022/05/30 09:54:23;;;;;;;4.40;1.42;;;14.30;56.70;;;;;;4918287;29;20047;-77
2022/05/30 09:56:59;;;;;;;5.35;0.85;;;14.30;56.60;;;;;;4918395;29;20431;-77
2022/05/30 09:59:48;;;;;;;4.97;0.73;;;14.30;56.90;;;;;;4918677;29;20043;-77
2022/05/30 10:02:32;;;;;;;14.18;1.55;;;14.30;56.60;;;;;;4907924;29;20055;-77
2022/05/30 10:05:15;;;;;;;9.85;1.50;;;14.40;56.20;;;;;;4923271;29;20055;-77
2022/05/30 10:07:52;;;;;;;4.43;1.00;;;14.40;56.20;;;;;;4933738;29;20044;-78
2022/05/30 10:10:48;;;;;;;3.60;0.82;;;14.50;56.20;;;;;;4920383;29;20066;-76
2022/05/30 10:13:40;;;;;;;6.35;1.00;;;14.60;56.40;;;;;;4916183;29;20801;-76
2022/05/30 10:16:31;;;;;;;6.07;1.05;;;14.70;56.00;;;;;;4931157;29;20062;-77
2022/05/30 10:19:06;;;;;;;6.40;0.90;;;14.70;56.40;;;;;;4912528;29;20070;-78
2022/05/30 10:28:49;;;;;;;9.25;1.05;;;14.50;56.00;;;;;;4900471;29;20059;-77
2022/05/30 10:31:42;;;;;;;1.55;0.65;;;14.70;56.20;;;;;;4915069;29;20051;-77
2022/05/30 10:34:14;;;;;;;3.53;0.80;;;14.90;55.20;;;;;;4939480;29;20050;-78
2022/05/30 10:37:11;;;;;;;3.67;0.60;;;15.00;54.70;;;;;;4902005;29;20067;-77
2022/05/30 10:40:13;;;;;;;2.83;0.60;;;15.00;53.80;;;;;;4926223;29;20409;-77
2022/05/30 10:43:02;;;;;;;2.85;0.80;;;15.00;52.50;;;;;;4934383;29;20040;-77
2022/05/30 10:45:45;;;;;;;2.05;0.60;;;15.20;52.70;;;;;;4926502;29;20036;-77
2022/05/30 10:48:41;;;;;;;2.28;0.70;;;15.40;52.20;;;;;;4917408;29;20055;-77
2022/05/30 10:51:35;;;;;;;2.80;0.70;;;15.60;51.00;;;;;;4929086;29;20055;-77
2022/05/30 10:54:07;;;;;;;2.67;0.55;;;15.80;51.50;;;;;;4917380;29;20044;-83
2022/05/30 10:57:13;;;;;;;4.40;0.60;;;15.90;49.30;;;;;;4932880;29;20094;-76
2022/05/30 10:59:47;;;;;;;5.05;0.90;;;16.00;50.20;;;;;;4931597;29;20039;-75
2022/05/30 11:02:27;;;;;;;6.20;0.50;;;16.20;49.80;;;;;;4912084;29;20071;-76
2022/05/30 11:05:10;;;;;;;4.18;1.17;;;16.30;49.00;;;;;;4919850;29;20047;-77
2022/05/30 11:07:55;;;;;;;3.80;0.70;;;16.10;48.50;;;;;;4916989;29;20425;-77
2022/05/30 11:10:33;;;;;;;3.47;0.70;;;16.00;49.60;;;;;;4916790;29;20051;-77
2022/05/30 11:13:08;;;;;;;2.75;0.80;;;16.20;49.50;;;;;;4901430;29;20493;-78
2022/05/30 11:15:54;;;;;;;1.98;0.50;;;16.30;48.40;;;;;;4918312;29;20066;-77
2022/05/30 11:18:46;;;;;;;2.15;0.93;;;16.50;48.40;;;;;;4922677;29;20051;-77
2022/05/30 11:21:32;;;;;;;2.17;0.60;;;16.60;48.50;;;;;;4944072;29;20047;-77
2022/05/30 11:24:03;;;;;;;3.15;0.75;;;16.80;48.10;;;;;;4904541;29;20425;-77
2022/05/30 11:26:52;;;;;;;3.88;0.40;;;17.00;48.00;;;;;;4920160;29;20071;-78
2022/05/30 11:29:25;;;;;;;3.10;0.40;;;17.00;46.80;;;;;;4929128;29;20039;-78
2022/05/30 11:32:14;;;;;;;5.00;0.85;;;16.90;46.30;;;;;;4936057;29;20056;-77
2022/05/30 11:35:03;;;;;;;2.88;0.80;;;16.60;46.70;;;;;;4936446;29;20044;-76
2022/05/30 11:37:33;;;;;;;4.40;0.93;;;16.20;49.10;;;;;;4951862;29;20044;-77
2022/05/30 11:40:38;;;;;;;6.57;1.05;;;15.90;50.20;;;;;;4919640;29;20062;-76
2022/05/30 11:43:24;;;;;;;4.05;0.80;;;15.50;51.60;;;;;;4938292;29;20048;-76
2022/05/30 11:45:57;;;;;;;3.70;0.77;;;15.00;53.30;;;;;;4919331;29;20055;-76
2022/05/30 11:48:39;;;;;;;5.85;0.77;;;14.40;54.70;;;;;;4936663;29;20375;-76
2022/05/30 11:51:24;;;;;;;6.82;0.93;;;14.00;57.40;;;;;;4936366;29;20067;-75
2022/05/30 11:54:18;;;;;;;4.65;1.38;;;13.50;61.40;;;;;;4945717;29;20059;-77
2022/05/30 11:57:00;;;;;;;3.95;0.70;;;12.80;65.20;;;;;;4939657;29;20390;-79
2022/05/30 11:59:56;;;;;;;4.13;1.00;;;12.50;67.30;;;;;;4928627;29;20048;-78
2022/05/30 12:02:35;;;;;;;2.05;0.70;;;12.10;68.90;;;;;;4918894;29;20055;-76
2022/05/30 12:05:21;;;;;;;7.10;1.10;;;11.90;69.50;;;;;;4918855;29;20048;-77
2022/05/30 12:08:23;;;;;;;2.08;0.90;;;11.90;69.60;;;;;;4936186;29;20110;-77
2022/05/30 12:10:53;;;;;;;4.63;0.65;;;12.00;69.80;;;;;;4935676;29;20048;-77
2022/05/30 12:13:41;;;;;;;4.25;0.80;;;12.20;69.40;;;;;;4935910;29;20059;-78
2022/05/30 12:16:19;;;;;;;1.17;0.45;;;12.30;69.20;;;;;;4936061;29;20059;-78
2022/05/30 12:24:53;;;;;;;3.17;0.57;;;12.80;69.20;;;;;;4917837;29;20490;-80
2022/05/30 12:27:36;;;;;;;2.13;0.70;;;12.80;69.00;;;;;;4907121;29;20045;-80
2022/05/30 12:30:07;;;;;;;7.35;2.70;;;13.10;68.80;;;;;;4899405;29;20052;-73
2022/05/30 12:32:40;;;;;;;3.42;0.30;;;13.30;67.50;;;;;;4920003;29;20048;-82
2022/05/30 12:35:15;;;;;;;6.13;0.63;;;13.60;66.60;;;;;;4903166;29;20052;-79
2022/05/30 12:38:07;;;;;;;0.75;0.52;;;13.90;65.70;;;;;;4903936;29;20049;-81
2022/05/30 12:40:38;;;;;;;3.15;0.93;;;14.20;64.80;;;;;;4916477;29;20048;-81
2022/05/30 12:43:15;;;;;;;0.65;0.50;;;14.80;64.50;;;;;;4901111;29;20048;-81
2022/05/30 12:45:47;;;;;;;2.25;0.70;;;15.40;63.30;;;;;;4918413;29;20060;-81
2022/05/30 12:48:39;;;;;;;6.88;0.90;;;15.70;61.00;;;;;;4914193;29;20494;-80
2022/05/30 12:51:23;;;;;;;2.20;0.80;;;15.80;60.70;;;;;;4915519;29;20514;-81
2022/05/30 12:54:00;;;;;;;7.65;0.98;;;15.70;59.90;;;;;;4900853;29;20055;-81
2022/05/30 12:56:38;;;;;;;2.90;0.80;;;15.40;60.40;;;;;;4910821;29;20415;-80
2022/05/30 12:59:25;;;;;;;5.10;1.27;;;15.10;61.30;;;;;;4922114;29;20055;-82
2022/05/30 13:01:57;;;;;;;3.53;0.90;;;14.80;61.90;;;;;;4924345;29;20059;-81
2022/05/30 13:04:35;;;;;;;5.28;1.05;;;14.50;62.40;;;;;;4912852;29;20048;-81
2022/05/30 13:07:04;;;;;;;3.75;1.20;;;14.30;63.20;;;;;;4919854;29;20051;-81
2022/05/30 13:09:35;;;;;;;4.82;1.13;;;14.00;64.20;;;;;;4912821;29;20043;-82
2022/05/30 13:12:17;;;;;;;4.15;1.25;;;13.70;65.10;;;;;;4915981;29;20514;-80
2022/05/30 13:15:00;;;;;;;8.60;1.88;;;13.30;66.30;;;;;;4904337;29;20048;-82
2022/05/30 13:17:30;;;;;;;2.63;1.30;;;12.90;67.60;;;;;;4924533;29;20051;-83
2022/05/30 13:19:59;;;;;;;4.13;1.40;;;12.80;68.30;;;;;;4929839;29;20056;-84
2022/05/30 13:22:51;;;;;;;4.40;1.50;;;12.70;68.70;;;;;;4914392;29;20060;-83
2022/05/30 13:25:23;;;;;;;2.25;1.30;;;12.70;69.20;;;;;;4912238;29;20059;-83
2022/05/30 13:27:51;;;;;;;5.22;1.63;;;12.80;69.70;;;;;;4899996;29;20052;-84
2022/05/30 13:30:27;;;;;;;5.13;1.70;;;12.90;69.80;;;;;;4895774;29;20040;-85
2022/05/30 13:32:55;;;;;;;5.22;1.63;;;12.90;69.90;;;;;;4916851;29;20055;-84
2022/05/30 13:35:31;;;;;;;11.07;2.17;;;12.90;69.90;;;;;;4907888;29;20052;-84
2022/05/30 13:38:02;;;;;;;3.80;1.60;;;12.90;70.10;;;;;;4924158;29;20056;-81
2022/05/30 13:40:32;;;;;;;10.30;1.85;;;12.90;70.30;;;;;;4922424;29;20055;-85
2022/05/30 13:43:03;;;;;;;8.73;1.58;;;13.00;70.30;;;;;;4915736;29;20062;-84
2022/05/30 13:45:50;;;;;;;12.57;1.48;;;13.00;70.40;;;;;;4919345;29;20055;-85
2022/05/30 13:48:19;;;;;;;4.68;1.70;;;12.90;70.40;;;;;;4917849;29;20048;-85
2022/05/30 13:51:00;;;;;;;9.32;1.92;;;12.90;70.40;;;;;;4920740;29;20067;-86
2022/05/30 13:53:42;;;;;;;5.63;1.80;;;12.90;70.70;;;;;;4925619;29;20059;-85
2022/05/30 13:56:31;;;;;;;4.43;1.80;;;12.80;71.40;;;;;;4908811;29;20060;-84
2022/05/30 13:59:00;;;;;;;8.13;1.50;;;12.80;71.70;;;;;;4925621;29;20059;-85
2022/05/30 14:01:37;;;;;;;4.28;2.00;;;12.80;71.90;;;;;;4930759;29;20049;-85
2022/05/30 14:04:12;;;;;;;6.15;1.90;;;12.80;72.20;;;;;;4926249;29;20055;-85
2022/05/30 14:06:43;;;;;;;3.65;1.30;;;12.80;72.00;;;;;;4921875;29;20417;-83
2022/05/30 14:09:16;;;;;;;6.75;1.98;;;13.00;72.10;;;;;;4922518;29;20056;-86
2022/05/30 14:11:58;;;;;;;3.88;1.27;;;13.10;72.50;;;;;;4915052;29;20052;-85